sensor_id;sensor_type;location;lat;lon;timestamp;P1;durP1;ratioP1;P2;durP2;ratioP2
34234;SDS011;20500;49.856;20.290;2022-07-17T07:39:51;10.10;;;2.20;;
34234;SDS011;20500;49.856;20.290;2022-07-17T07:42:57;6.10;;;1.70;;
34234;SDS011;20500;49.856;20.290;2022-07-17T07:46:03;8.80;;;1.90;;
34234;SDS011;20500;49.856;20.290;2022-07-17T07:49:09;7.50;;;1.90;;
34234;SDS011;20500;49.856;20.290;2022-07-17T07:52:14;7.50;;;2.00;;
34234;SDS011;20500;49.856;20.290;2022-07-17T07:55:20;8.50;;;2.00;;
34234;SDS011;20500;49.856;20.290;2022-07-17T07:58:25;8.50;;;1.80;;
34234;SDS011;20500;49.856;20.290;2022-07-17T08:01:31;7.40;;;1.80;;
34234;SDS011;20500;49.856;20.290;2022-07-17T08:04:36;8.00;;;2.20;;
34234;SDS011;20500;49.856;20.290;2022-07-17T08:07:41;6.90;;;1.50;;
34234;SDS011;20500;49.856;20.290;2022-07-17T08:10:47;6.60;;;1.70;;
34234;SDS011;20500;49.856;20.290;2022-07-17T08:13:52;7.40;;;1.60;;
34234;SDS011;20500;49.856;20.290;2022-07-17T08:17:00;6.90;;;2.10;;
34234;SDS011;20500;49.856;20.290;2022-07-17T08:20:07;7.20;;;2.10;;
34234;SDS011;20500;49.856;20.290;2022-07-17T08:23:16;8.00;;;2.00;;
34234;SDS011;20500;49.856;20.290;2022-07-17T08:26:21;6.70;;;1.50;;
34234;SDS011;20500;49.856;20.290;2022-07-17T08:29:27;6.60;;;1.60;;
34234;SDS011;20500;49.856;20.290;2022-07-17T08:32:53;9.40;;;2.50;;
34234;SDS011;20500;49.856;20.290;2022-07-17T08:35:58;7.30;;;1.60;;
34234;SDS011;20500;49.856;20.290;2022-07-17T08:39:04;8.00;;;1.90;;
34234;SDS011;20500;49.856;20.290;2022-07-17T08:42:09;5.10;;;1.60;;
34234;SDS011;20500;49.856;20.290;2022-07-17T08:45:18;6.60;;;1.80;;
34234;SDS011;20500;49.856;20.290;2022-07-17T08:48:25;6.10;;;1.50;;
34234;SDS011;20500;49.856;20.290;2022-07-17T08:51:32;6.00;;;1.70;;
34234;SDS011;20500;49.856;20.290;2022-07-17T08:54:42;4.90;;;1.40;;
34234;SDS011;20500;49.856;20.290;2022-07-17T08:57:48;4.40;;;1.50;;
34234;SDS011;20500;49.856;20.290;2022-07-17T09:00:53;4.70;;;1.50;;
34234;SDS011;20500;49.856;20.290;2022-07-17T09:04:01;6.00;;;1.60;;
34234;SDS011;20500;49.856;20.290;2022-07-17T09:07:09;4.50;;;1.40;;
34234;SDS011;20500;49.856;20.290;2022-07-17T09:10:16;6.00;;;1.30;;
34234;SDS011;20500;49.856;20.290;2022-07-17T09:13:23;6.20;;;1.20;;
34234;SDS011;20500;49.856;20.290;2022-07-17T09:16:30;4.50;;;1.50;;
34234;SDS011;20500;49.856;20.290;2022-07-17T09:19:51;5.50;;;1.40;;
34234;SDS011;20500;49.856;20.290;2022-07-17T09:22:57;4.60;;;1.50;;
34234;SDS011;20500;49.856;20.290;2022-07-17T09:26:07;7.50;;;1.50;;
34234;SDS011;20500;49.856;20.290;2022-07-17T09:32:17;6.20;;;1.80;;
34234;SDS011;20500;49.856;20.290;2022-07-17T09:35:23;6.80;;;2.20;;
34234;SDS011;20500;49.856;20.290;2022-07-17T09:38:30;7.10;;;1.90;;
34234;SDS011;20500;49.856;20.290;2022-07-17T09:41:36;5.70;;;1.70;;
34234;SDS011;20500;49.856;20.290;2022-07-17T09:44:42;6.20;;;1.80;;
34234;SDS011;20500;49.856;20.290;2022-07-17T09:47:58;6.60;;;2.00;;
34234;SDS011;20500;49.856;20.290;2022-07-17T09:51:04;6.90;;;2.20;;
34234;SDS011;20500;49.856;20.290;2022-07-17T09:54:10;7.60;;;2.00;;
34234;SDS011;20500;49.856;20.290;2022-07-17T09:57:15;4.10;;;1.60;;
34234;SDS011;20500;49.856;20.290;2022-07-17T10:00:22;8.30;;;2.50;;
34234;SDS011;20500;49.856;20.290;2022-07-17T10:03:28;6.30;;;2.30;;
34234;SDS011;20500;49.856;20.290;2022-07-17T10:06:33;8.10;;;1.80;;
34234;SDS011;20500;49.856;20.290;2022-07-17T10:09:40;5.30;;;1.40;;
34234;SDS011;20500;49.856;20.290;2022-07-17T10:12:46;6.10;;;1.80;;
34234;SDS011;20500;49.856;20.290;2022-07-17T10:15:53;4.70;;;1.50;;
34234;SDS011;20500;49.856;20.290;2022-07-17T10:22:05;5.70;;;1.60;;
34234;SDS011;20500;49.856;20.290;2022-07-17T10:25:13;7.00;;;1.70;;
34234;SDS011;20500;49.856;20.290;2022-07-17T10:28:20;5.80;;;1.50;;
34234;SDS011;20500;49.856;20.290;2022-07-17T10:31:27;6.40;;;1.70;;
34234;SDS011;20500;49.856;20.290;2022-07-17T10:34:41;6.00;;;1.70;;
34234;SDS011;20500;49.856;20.290;2022-07-17T10:37:49;5.80;;;1.70;;
34234;SDS011;20500;49.856;20.290;2022-07-17T10:40:59;7.10;;;1.70;;
34234;SDS011;20500;49.856;20.290;2022-07-17T10:44:05;8.30;;;1.60;;
34234;SDS011;20500;49.856;20.290;2022-07-17T10:47:11;4.80;;;1.30;;
34234;SDS011;20500;49.856;20.290;2022-07-17T10:50:29;5.60;;;1.60;;
34234;SDS011;20500;49.856;20.290;2022-07-17T10:53:38;9.00;;;2.60;;
34234;SDS011;20500;49.856;20.290;2022-07-17T10:56:44;5.90;;;1.70;;
34234;SDS011;20500;49.856;20.290;2022-07-17T11:02:54;5.30;;;1.60;;
34234;SDS011;20500;49.856;20.290;2022-07-17T11:06:17;4.50;;;1.30;;
34234;SDS011;20500;49.856;20.290;2022-07-17T11:09:24;6.60;;;1.50;;
34234;SDS011;20500;49.856;20.290;2022-07-17T11:12:32;6.30;;;1.40;;
34234;SDS011;20500;49.856;20.290;2022-07-17T11:15:42;6.50;;;1.30;;
34234;SDS011;20500;49.856;20.290;2022-07-17T11:18:49;7.20;;;2.00;;
34234;SDS011;20500;49.856;20.290;2022-07-17T11:21:56;6.60;;;1.70;;
34234;SDS011;20500;49.856;20.290;2022-07-17T11:25:03;4.80;;;1.40;;
34234;SDS011;20500;49.856;20.290;2022-07-17T11:28:10;4.70;;;1.50;;
34234;SDS011;20500;49.856;20.290;2022-07-17T11:31:17;7.20;;;1.70;;
34234;SDS011;20500;49.856;20.290;2022-07-17T11:34:25;6.60;;;2.00;;
34234;SDS011;20500;49.856;20.290;2022-07-17T11:37:33;6.00;;;1.50;;
34234;SDS011;20500;49.856;20.290;2022-07-17T11:40:46;5.10;;;1.40;;
34234;SDS011;20500;49.856;20.290;2022-07-17T11:43:52;5.10;;;1.50;;
34234;SDS011;20500;49.856;20.290;2022-07-17T11:47:00;5.80;;;1.60;;
34234;SDS011;20500;49.856;20.290;2022-07-17T11:50:10;4.70;;;1.40;;
34234;SDS011;20500;49.856;20.290;2022-07-17T11:53:16;5.50;;;1.40;;
34234;SDS011;20500;49.856;20.290;2022-07-17T11:56:22;6.50;;;1.70;;
34234;SDS011;20500;49.856;20.290;2022-07-17T11:59:28;3.60;;;1.30;;
34234;SDS011;20500;49.856;20.290;2022-07-17T12:02:35;6.90;;;1.90;;
34234;SDS011;20500;49.856;20.290;2022-07-17T12:08:51;6.90;;;2.10;;
34234;SDS011;20500;49.856;20.290;2022-07-17T12:11:57;4.50;;;1.50;;
34234;SDS011;20500;49.856;20.290;2022-07-17T12:15:02;4.40;;;1.60;;
34234;SDS011;20500;49.856;20.290;2022-07-17T12:18:19;6.90;;;2.10;;
34234;SDS011;20500;49.856;20.290;2022-07-17T12:21:26;7.40;;;1.60;;
34234;SDS011;20500;49.856;20.290;2022-07-17T12:24:32;4.30;;;1.30;;
34234;SDS011;20500;49.856;20.290;2022-07-17T12:27:40;7.10;;;1.60;;
34234;SDS011;20500;49.856;20.290;2022-07-17T12:30:46;4.20;;;1.30;;
34234;SDS011;20500;49.856;20.290;2022-07-17T12:33:53;4.50;;;1.30;;
34234;SDS011;20500;49.856;20.290;2022-07-17T12:36:59;3.00;;;1.20;;
34234;SDS011;20500;49.856;20.290;2022-07-17T12:40:06;6.10;;;1.20;;
34234;SDS011;20500;49.856;20.290;2022-07-17T12:43:17;4.50;;;1.50;;
34234;SDS011;20500;49.856;20.290;2022-07-17T12:49:27;9.60;;;2.00;;
34234;SDS011;20500;49.856;20.290;2022-07-17T12:52:33;4.40;;;1.60;;
34234;SDS011;20500;49.856;20.290;2022-07-17T12:55:38;8.40;;;2.10;;
34234;SDS011;20500;49.856;20.290;2022-07-17T12:58:44;4.00;;;1.20;;
34234;SDS011;20500;49.856;20.290;2022-07-17T13:01:49;5.70;;;1.40;;
34234;SDS011;20500;49.856;20.290;2022-07-17T13:04:56;4.70;;;1.60;;
34234;SDS011;20500;49.856;20.290;2022-07-17T13:08:03;4.60;;;1.30;;
34234;SDS011;20500;49.856;20.290;2022-07-17T13:11:09;7.20;;;1.90;;
34234;SDS011;20500;49.856;20.290;2022-07-17T13:14:15;5.40;;;1.10;;
34234;SDS011;20500;49.856;20.290;2022-07-17T13:17:21;3.90;;;1.30;;
34234;SDS011;20500;49.856;20.290;2022-07-17T13:20:26;5.10;;;1.50;;
34234;SDS011;20500;49.856;20.290;2022-07-17T13:23:32;9.30;;;3.00;;
34234;SDS011;20500;49.856;20.290;2022-07-17T13:26:38;6.30;;;1.80;;
34234;SDS011;20500;49.856;20.290;2022-07-17T13:29:43;7.30;;;1.70;;
34234;SDS011;20500;49.856;20.290;2022-07-17T13:32:49;4.50;;;1.30;;
34234;SDS011;20500;49.856;20.290;2022-07-17T13:35:56;7.00;;;2.20;;
34234;SDS011;20500;49.856;20.290;2022-07-17T13:39:01;7.20;;;2.20;;
34234;SDS011;20500;49.856;20.290;2022-07-17T13:42:07;10.00;;;2.30;;
34234;SDS011;20500;49.856;20.290;2022-07-17T13:45:12;7.40;;;2.00;;
34234;SDS011;20500;49.856;20.290;2022-07-17T13:48:18;6.90;;;1.40;;
34234;SDS011;20500;49.856;20.290;2022-07-17T13:51:24;4.30;;;1.50;;
34234;SDS011;20500;49.856;20.290;2022-07-17T13:54:32;6.10;;;2.40;;
34234;SDS011;20500;49.856;20.290;2022-07-17T13:57:37;5.80;;;1.40;;
34234;SDS011;20500;49.856;20.290;2022-07-17T14:06:52;6.80;;;2.00;;
34234;SDS011;20500;49.856;20.290;2022-07-17T14:09:59;7.00;;;1.80;;
34234;SDS011;20500;49.856;20.290;2022-07-17T14:13:04;5.80;;;1.40;;
34234;SDS011;20500;49.856;20.290;2022-07-17T14:16:10;6.80;;;1.80;;
34234;SDS011;20500;49.856;20.290;2022-07-17T14:19:16;3.90;;;1.20;;
34234;SDS011;20500;49.856;20.290;2022-07-17T14:25:25;8.10;;;2.00;;
34234;SDS011;20500;49.856;20.290;2022-07-17T14:28:31;4.50;;;1.30;;
34234;SDS011;20500;49.856;20.290;2022-07-17T14:31:36;6.40;;;1.40;;
34234;SDS011;20500;49.856;20.290;2022-07-17T14:34:46;4.60;;;1.20;;
34234;SDS011;20500;49.856;20.290;2022-07-17T14:37:51;6.00;;;1.60;;
34234;SDS011;20500;49.856;20.290;2022-07-17T14:40:57;5.00;;;1.70;;
34234;SDS011;20500;49.856;20.290;2022-07-17T14:47:07;8.00;;;1.50;;
34234;SDS011;20500;49.856;20.290;2022-07-17T14:50:13;19.20;;;3.20;;
34234;SDS011;20500;49.856;20.290;2022-07-17T14:53:19;8.80;;;2.00;;
34234;SDS011;20500;49.856;20.290;2022-07-17T14:56:26;7.20;;;1.80;;
34234;SDS011;20500;49.856;20.290;2022-07-17T14:59:32;4.90;;;1.50;;
34234;SDS011;20500;49.856;20.290;2022-07-17T15:02:37;4.30;;;1.60;;
34234;SDS011;20500;49.856;20.290;2022-07-17T15:05:44;5.30;;;1.70;;
34234;SDS011;20500;49.856;20.290;2022-07-17T15:08:50;3.70;;;1.30;;
34234;SDS011;20500;49.856;20.290;2022-07-17T15:11:55;5.40;;;1.30;;
34234;SDS011;20500;49.856;20.290;2022-07-17T15:15:00;5.80;;;2.00;;
34234;SDS011;20500;49.856;20.290;2022-07-17T15:18:06;18.10;;;11.80;;
34234;SDS011;20500;49.856;20.290;2022-07-17T15:21:11;8.70;;;3.20;;
34234;SDS011;20500;49.856;20.290;2022-07-17T15:24:37;7.20;;;1.60;;
34234;SDS011;20500;49.856;20.290;2022-07-17T15:27:42;5.20;;;1.20;;
34234;SDS011;20500;49.856;20.290;2022-07-17T15:30:48;4.60;;;1.20;;
34234;SDS011;20500;49.856;20.290;2022-07-17T15:33:54;7.90;;;2.40;;
34234;SDS011;20500;49.856;20.290;2022-07-17T15:40:04;10.50;;;3.40;;
34234;SDS011;20500;49.856;20.290;2022-07-17T15:43:11;6.20;;;1.80;;
34234;SDS011;20500;49.856;20.290;2022-07-17T15:46:16;10.70;;;4.00;;
34234;SDS011;20500;49.856;20.290;2022-07-17T15:49:22;7.80;;;2.70;;
34234;SDS011;20500;49.856;20.290;2022-07-17T15:52:30;5.80;;;1.70;;
34234;SDS011;20500;49.856;20.290;2022-07-17T15:55:35;8.30;;;2.60;;
34234;SDS011;20500;49.856;20.290;2022-07-17T15:58:41;7.00;;;2.10;;
34234;SDS011;20500;49.856;20.290;2022-07-17T16:01:46;5.30;;;1.40;;
34234;SDS011;20500;49.856;20.290;2022-07-17T16:04:52;6.60;;;1.60;;
34234;SDS011;20500;49.856;20.290;2022-07-17T16:07:57;9.30;;;1.90;;
34234;SDS011;20500;49.856;20.290;2022-07-17T16:14:07;6.20;;;1.20;;
34234;SDS011;20500;49.856;20.290;2022-07-17T16:17:12;5.90;;;1.50;;
34234;SDS011;20500;49.856;20.290;2022-07-17T16:20:18;6.60;;;1.90;;
34234;SDS011;20500;49.856;20.290;2022-07-17T16:23:23;8.30;;;1.70;;
34234;SDS011;20500;49.856;20.290;2022-07-17T16:26:29;6.20;;;1.80;;
34234;SDS011;20500;49.856;20.290;2022-07-17T16:29:34;5.80;;;1.90;;
34234;SDS011;20500;49.856;20.290;2022-07-17T16:32:40;5.70;;;1.40;;
34234;SDS011;20500;49.856;20.290;2022-07-17T16:35:45;4.60;;;1.40;;
34234;SDS011;20500;49.856;20.290;2022-07-17T16:38:51;6.40;;;1.70;;
34234;SDS011;20500;49.856;20.290;2022-07-17T16:41:57;6.10;;;1.80;;
34234;SDS011;20500;49.856;20.290;2022-07-17T16:45:04;5.60;;;1.40;;
34234;SDS011;20500;49.856;20.290;2022-07-17T16:48:10;8.00;;;2.30;;
34234;SDS011;20500;49.856;20.290;2022-07-17T16:54:27;6.10;;;1.40;;
34234;SDS011;20500;49.856;20.290;2022-07-17T16:57:32;8.50;;;2.00;;
34234;SDS011;20500;49.856;20.290;2022-07-17T17:03:42;6.00;;;1.90;;
34234;SDS011;20500;49.856;20.290;2022-07-17T17:06:49;7.50;;;2.00;;
34234;SDS011;20500;49.856;20.290;2022-07-17T17:09:55;6.20;;;1.80;;
34234;SDS011;20500;49.856;20.290;2022-07-17T17:16:06;9.00;;;1.90;;
34234;SDS011;20500;49.856;20.290;2022-07-17T17:19:12;6.50;;;1.50;;
34234;SDS011;20500;49.856;20.290;2022-07-17T17:22:17;7.30;;;1.80;;
34234;SDS011;20500;49.856;20.290;2022-07-17T17:25:23;6.70;;;1.50;;
34234;SDS011;20500;49.856;20.290;2022-07-17T17:28:29;5.30;;;1.50;;
34234;SDS011;20500;49.856;20.290;2022-07-17T17:31:34;8.50;;;2.30;;
34234;SDS011;20500;49.856;20.290;2022-07-17T17:34:40;8.30;;;2.40;;
34234;SDS011;20500;49.856;20.290;2022-07-17T17:37:45;10.00;;;3.90;;
34234;SDS011;20500;49.856;20.290;2022-07-17T17:40:51;12.40;;;3.90;;
34234;SDS011;20500;49.856;20.290;2022-07-17T17:43:56;8.40;;;2.90;;
34234;SDS011;20500;49.856;20.290;2022-07-17T17:50:07;10.70;;;3.70;;
34234;SDS011;20500;49.856;20.290;2022-07-17T17:53:12;8.90;;;2.90;;
34234;SDS011;20500;49.856;20.290;2022-07-17T17:56:18;9.10;;;3.30;;
34234;SDS011;20500;49.856;20.290;2022-07-17T17:59:23;10.50;;;4.10;;
34234;SDS011;20500;49.856;20.290;2022-07-17T18:02:29;11.80;;;4.70;;
34234;SDS011;20500;49.856;20.290;2022-07-17T18:05:35;14.00;;;4.00;;
34234;SDS011;20500;49.856;20.290;2022-07-17T18:08:43;9.50;;;3.80;;
34234;SDS011;20500;49.856;20.290;2022-07-17T18:11:49;8.90;;;3.30;;
34234;SDS011;20500;49.856;20.290;2022-07-17T18:17:59;9.10;;;3.20;;
34234;SDS011;20500;49.856;20.290;2022-07-17T18:21:05;9.00;;;3.20;;
34234;SDS011;20500;49.856;20.290;2022-07-17T18:24:11;9.70;;;3.50;;
34234;SDS011;20500;49.856;20.290;2022-07-17T18:27:17;6.70;;;2.20;;
34234;SDS011;20500;49.856;20.290;2022-07-17T18:30:23;9.20;;;3.20;;
34234;SDS011;20500;49.856;20.290;2022-07-17T18:33:28;12.10;;;5.50;;
34234;SDS011;20500;49.856;20.290;2022-07-17T18:36:34;12.80;;;5.90;;
34234;SDS011;20500;49.856;20.290;2022-07-17T18:39:40;14.90;;;8.30;;
34234;SDS011;20500;49.856;20.290;2022-07-17T18:45:49;13.40;;;7.00;;
34234;SDS011;20500;49.856;20.290;2022-07-17T18:48:55;14.40;;;7.70;;
34234;SDS011;20500;49.856;20.290;2022-07-17T18:52:00;21.10;;;13.20;;
34234;SDS011;20500;49.856;20.290;2022-07-17T18:55:06;18.00;;;11.30;;
34234;SDS011;20500;49.856;20.290;2022-07-17T18:58:12;17.20;;;9.80;;
34234;SDS011;20500;49.856;20.290;2022-07-17T19:04:22;11.10;;;4.00;;
34234;SDS011;20500;49.856;20.290;2022-07-17T19:07:27;16.80;;;9.90;;
34234;SDS011;20500;49.856;20.290;2022-07-17T19:10:33;13.90;;;5.10;;
34234;SDS011;20500;49.856;20.290;2022-07-17T19:13:38;11.30;;;4.00;;
34234;SDS011;20500;49.856;20.290;2022-07-17T19:16:45;16.80;;;7.70;;
34234;SDS011;20500;49.856;20.290;2022-07-17T19:19:51;9.60;;;3.80;;
34234;SDS011;20500;49.856;20.290;2022-07-17T19:22:57;11.50;;;3.40;;
34234;SDS011;20500;49.856;20.290;2022-07-17T19:26:07;10.40;;;3.40;;
34234;SDS011;20500;49.856;20.290;2022-07-17T19:29:13;11.70;;;3.70;;
34234;SDS011;20500;49.856;20.290;2022-07-17T19:32:18;11.40;;;3.30;;
34234;SDS011;20500;49.856;20.290;2022-07-17T19:38:28;9.60;;;2.20;;
34234;SDS011;20500;49.856;20.290;2022-07-17T19:41:36;6.30;;;1.80;;
34234;SDS011;20500;49.856;20.290;2022-07-17T19:44:41;8.60;;;2.40;;
34234;SDS011;20500;49.856;20.290;2022-07-17T19:47:47;7.00;;;2.10;;
34234;SDS011;20500;49.856;20.290;2022-07-17T19:50:53;6.60;;;2.10;;
34234;SDS011;20500;49.856;20.290;2022-07-17T19:53:58;5.80;;;1.60;;
34234;SDS011;20500;49.856;20.290;2022-07-17T19:57:04;6.80;;;2.30;;
34234;SDS011;20500;49.856;20.290;2022-07-17T20:00:12;6.40;;;1.70;;
34234;SDS011;20500;49.856;20.290;2022-07-17T20:03:18;7.90;;;2.10;;
34234;SDS011;20500;49.856;20.290;2022-07-17T20:06:24;5.80;;;1.90;;
34234;SDS011;20500;49.856;20.290;2022-07-17T20:09:29;12.30;;;3.60;;
34234;SDS011;20500;49.856;20.290;2022-07-17T20:12:36;12.40;;;4.80;;
34234;SDS011;20500;49.856;20.290;2022-07-17T20:15:42;10.00;;;3.50;;
34234;SDS011;20500;49.856;20.290;2022-07-17T20:18:48;8.40;;;2.90;;
34234;SDS011;20500;49.856;20.290;2022-07-17T20:24:57;8.30;;;2.50;;
34234;SDS011;20500;49.856;20.290;2022-07-17T20:28:03;9.10;;;3.60;;
34234;SDS011;20500;49.856;20.290;2022-07-17T20:31:09;13.70;;;4.40;;
34234;SDS011;20500;49.856;20.290;2022-07-17T20:34:14;12.10;;;5.60;;
34234;SDS011;20500;49.856;20.290;2022-07-17T20:37:20;9.30;;;3.80;;
34234;SDS011;20500;49.856;20.290;2022-07-17T20:40:25;8.90;;;3.10;;
34234;SDS011;20500;49.856;20.290;2022-07-17T20:43:31;8.90;;;2.80;;
34234;SDS011;20500;49.856;20.290;2022-07-17T20:46:38;6.10;;;2.40;;
34234;SDS011;20500;49.856;20.290;2022-07-17T20:49:43;8.20;;;2.90;;
34234;SDS011;20500;49.856;20.290;2022-07-17T20:52:49;7.90;;;2.40;;
34234;SDS011;20500;49.856;20.290;2022-07-17T20:55:54;7.80;;;2.40;;
34234;SDS011;20500;49.856;20.290;2022-07-17T20:59:00;10.20;;;2.90;;
34234;SDS011;20500;49.856;20.290;2022-07-17T21:02:06;7.30;;;3.00;;
34234;SDS011;20500;49.856;20.290;2022-07-17T21:05:11;10.90;;;3.70;;
34234;SDS011;20500;49.856;20.290;2022-07-17T21:08:17;9.20;;;3.60;;
34234;SDS011;20500;49.856;20.290;2022-07-17T21:11:25;10.10;;;3.30;;
34234;SDS011;20500;49.856;20.290;2022-07-17T21:14:30;11.20;;;4.90;;
34234;SDS011;20500;49.856;20.290;2022-07-17T21:17:35;9.90;;;4.00;;
34234;SDS011;20500;49.856;20.290;2022-07-17T21:20:41;13.10;;;6.80;;
34234;SDS011;20500;49.856;20.290;2022-07-17T21:23:46;13.80;;;6.60;;
34234;SDS011;20500;49.856;20.290;2022-07-17T21:26:52;12.70;;;6.90;;
34234;SDS011;20500;49.856;20.290;2022-07-17T21:29:57;13.20;;;7.40;;
34234;SDS011;20500;49.856;20.290;2022-07-17T21:33:03;13.50;;;5.30;;
34234;SDS011;20500;49.856;20.290;2022-07-17T21:36:08;13.50;;;6.80;;
34234;SDS011;20500;49.856;20.290;2022-07-17T21:39:14;13.80;;;6.10;;
34234;SDS011;20500;49.856;20.290;2022-07-17T21:42:20;12.60;;;5.60;;
34234;SDS011;20500;49.856;20.290;2022-07-17T21:45:25;12.70;;;5.80;;
34234;SDS011;20500;49.856;20.290;2022-07-17T21:48:31;11.70;;;5.10;;
34234;SDS011;20500;49.856;20.290;2022-07-17T21:51:37;10.80;;;4.60;;
34234;SDS011;20500;49.856;20.290;2022-07-17T21:54:42;10.40;;;3.80;;
34234;SDS011;20500;49.856;20.290;2022-07-17T21:57:48;10.00;;;3.80;;
34234;SDS011;20500;49.856;20.290;2022-07-17T22:00:54;13.40;;;3.90;;
34234;SDS011;20500;49.856;20.290;2022-07-17T22:04:00;12.20;;;5.10;;
34234;SDS011;20500;49.856;20.290;2022-07-17T22:10:12;9.70;;;3.50;;
34234;SDS011;20500;49.856;20.290;2022-07-17T22:13:18;9.70;;;3.10;;
34234;SDS011;20500;49.856;20.290;2022-07-17T22:16:24;9.70;;;3.40;;
34234;SDS011;20500;49.856;20.290;2022-07-17T22:19:33;9.40;;;3.80;;
34234;SDS011;20500;49.856;20.290;2022-07-17T22:22:39;10.00;;;3.30;;
34234;SDS011;20500;49.856;20.290;2022-07-17T22:25:46;9.80;;;3.60;;
34234;SDS011;20500;49.856;20.290;2022-07-17T22:31:56;10.80;;;3.20;;
34234;SDS011;20500;49.856;20.290;2022-07-17T22:35:03;9.40;;;3.00;;
34234;SDS011;20500;49.856;20.290;2022-07-17T22:38:10;8.80;;;3.10;;
34234;SDS011;20500;49.856;20.290;2022-07-17T22:41:16;8.40;;;2.70;;
34234;SDS011;20500;49.856;20.290;2022-07-17T22:44:21;10.00;;;3.30;;
34234;SDS011;20500;49.856;20.290;2022-07-17T22:47:27;9.10;;;3.10;;
34234;SDS011;20500;49.856;20.290;2022-07-17T22:50:32;9.00;;;3.10;;
34234;SDS011;20500;49.856;20.290;2022-07-17T22:53:37;9.90;;;3.40;;
34234;SDS011;20500;49.856;20.290;2022-07-17T22:59:48;9.20;;;3.20;;
34234;SDS011;20500;49.856;20.290;2022-07-17T23:02:54;9.00;;;3.10;;
34234;SDS011;20500;49.856;20.290;2022-07-17T23:06:01;9.30;;;2.80;;
34234;SDS011;20500;49.856;20.290;2022-07-17T23:09:06;7.90;;;3.00;;
34234;SDS011;20500;49.856;20.290;2022-07-17T23:12:13;9.30;;;2.90;;
34234;SDS011;20500;49.856;20.290;2022-07-17T23:15:19;9.00;;;3.30;;
34234;SDS011;20500;49.856;20.290;2022-07-17T23:18:25;11.30;;;3.00;;
34234;SDS011;20500;49.856;20.290;2022-07-17T23:21:30;7.60;;;2.40;;
34234;SDS011;20500;49.856;20.290;2022-07-17T23:24:36;9.40;;;2.90;;
34234;SDS011;20500;49.856;20.290;2022-07-17T23:27:41;6.90;;;2.70;;
34234;SDS011;20500;49.856;20.290;2022-07-17T23:30:47;8.20;;;2.80;;
34234;SDS011;20500;49.856;20.290;2022-07-17T23:33:52;9.10;;;2.70;;
34234;SDS011;20500;49.856;20.290;2022-07-17T23:36:57;7.60;;;2.80;;
34234;SDS011;20500;49.856;20.290;2022-07-17T23:40:03;9.50;;;3.40;;
34234;SDS011;20500;49.856;20.290;2022-07-17T23:43:11;6.80;;;2.40;;
34234;SDS011;20500;49.856;20.290;2022-07-17T23:46:16;7.90;;;3.00;;
34234;SDS011;20500;49.856;20.290;2022-07-17T23:49:22;8.50;;;2.60;;
34234;SDS011;20500;49.856;20.290;2022-07-17T23:52:27;6.80;;;2.60;;
34234;SDS011;20500;49.856;20.290;2022-07-17T23:55:33;7.60;;;2.90;;
34234;SDS011;20500;49.856;20.290;2022-07-17T23:58:38;7.60;;;2.50;;
